sensor_id;sensor_type;location;lat;lon;timestamp;P1;P2;P0
82886;PMS5003;72660;51.258;-2.200;2024-02-28T00:02:14;10;10;
82886;PMS5003;72660;51.258;-2.200;2024-02-28T00:04:40;14;11;
82886;PMS5003;72660;51.258;-2.200;2024-02-28T00:07:05;11;9;
82886;PMS5003;72660;51.258;-2.200;2024-02-28T00:09:30;10;10;
82886;PMS5003;72660;51.258;-2.200;2024-02-28T00:11:55;11;10;
82886;PMS5003;72660;51.258;-2.200;2024-02-28T00:14:21;15;12;
82886;PMS5003;72660;51.258;-2.200;2024-02-28T00:16:46;11;10;
82886;PMS5003;72660;51.258;-2.200;2024-02-28T00:19:12;13;12;
82886;PMS5003;72660;51.258;-2.200;2024-02-28T00:21:37;13;11;
82886;PMS5003;72660;51.258;-2.200;2024-02-28T00:24:02;11;11;
82886;PMS5003;72660;51.258;-2.200;2024-02-28T00:26:27;11;9;
82886;PMS5003;72660;51.258;-2.200;2024-02-28T00:28:52;12;12;
82886;PMS5003;72660;51.258;-2.200;2024-02-28T00:31:18;16;15;
82886;PMS5003;72660;51.258;-2.200;2024-02-28T00:33:44;15;13;
82886;PMS5003;72660;51.258;-2.200;2024-02-28T00:36:09;12;12;
82886;PMS5003;72660;51.258;-2.200;2024-02-28T00:38:34;11;11;
82886;PMS5003;72660;51.258;-2.200;2024-02-28T00:40:59;13;13;
82886;PMS5003;72660;51.258;-2.200;2024-02-28T00:43:24;14;12;
82886;PMS5003;72660;51.258;-2.200;2024-02-28T00:45:50;10;8;
82886;PMS5003;72660;51.258;-2.200;2024-02-28T00:48:15;8;7;
82886;PMS5003;72660;51.258;-2.200;2024-02-28T00:50:41;13;10;
82886;PMS5003;72660;51.258;-2.200;2024-02-28T00:53:07;10;10;
82886;PMS5003;72660;51.258;-2.200;2024-02-28T00:55:32;12;9;
82886;PMS5003;72660;51.258;-2.200;2024-02-28T00:57:58;9;9;
82886;PMS5003;72660;51.258;-2.200;2024-02-28T01:00:23;10;10;
82886;PMS5003;72660;51.258;-2.200;2024-02-28T01:02:48;12;12;
82886;PMS5003;72660;51.258;-2.200;2024-02-28T01:05:13;13;13;
82886;PMS5003;72660;51.258;-2.200;2024-02-28T01:07:39;14;13;
82886;PMS5003;72660;51.258;-2.200;2024-02-28T01:10:04;12;11;
82886;PMS5003;72660;51.258;-2.200;2024-02-28T01:12:29;13;10;
82886;PMS5003;72660;51.258;-2.200;2024-02-28T01:14:55;9;9;
82886;PMS5003;72660;51.258;-2.200;2024-02-28T01:17:20;12;12;
82886;PMS5003;72660;51.258;-2.200;2024-02-28T01:19:45;16;11;
82886;PMS5003;72660;51.258;-2.200;2024-02-28T01:22:10;8;8;
82886;PMS5003;72660;51.258;-2.200;2024-02-28T01:24:36;14;13;
82886;PMS5003;72660;51.258;-2.200;2024-02-28T01:27:01;10;10;
82886;PMS5003;72660;51.258;-2.200;2024-02-28T01:29:26;15;15;
82886;PMS5003;72660;51.258;-2.200;2024-02-28T01:31:51;12;11;
82886;PMS5003;72660;51.258;-2.200;2024-02-28T01:34:16;12;11;
82886;PMS5003;72660;51.258;-2.200;2024-02-28T01:36:42;16;13;
82886;PMS5003;72660;51.258;-2.200;2024-02-28T01:39:07;11;11;
82886;PMS5003;72660;51.258;-2.200;2024-02-28T01:41:32;14;14;
82886;PMS5003;72660;51.258;-2.200;2024-02-28T01:43:58;13;12;
82886;PMS5003;72660;51.258;-2.200;2024-02-28T01:46:24;15;11;
82886;PMS5003;72660;51.258;-2.200;2024-02-28T01:48:48;13;12;
82886;PMS5003;72660;51.258;-2.200;2024-02-28T01:51:13;15;13;
82886;PMS5003;72660;51.258;-2.200;2024-02-28T01:53:39;16;15;
82886;PMS5003;72660;51.258;-2.200;2024-02-28T01:56:04;21;14;
82886;PMS5003;72660;51.258;-2.200;2024-02-28T01:58:29;22;17;
82886;PMS5003;72660;51.258;-2.200;2024-02-28T02:00:55;11;11;
82886;PMS5003;72660;51.258;-2.200;2024-02-28T02:03:21;18;16;
82886;PMS5003;72660;51.258;-2.200;2024-02-28T02:05:46;18;14;
82886;PMS5003;72660;51.258;-2.200;2024-02-28T02:08:11;18;16;
82886;PMS5003;72660;51.258;-2.200;2024-02-28T02:10:37;22;15;
82886;PMS5003;72660;51.258;-2.200;2024-02-28T02:13:04;20;17;
82886;PMS5003;72660;51.258;-2.200;2024-02-28T02:15:28;16;15;
82886;PMS5003;72660;51.258;-2.200;2024-02-28T02:17:54;19;15;
82886;PMS5003;72660;51.258;-2.200;2024-02-28T02:20:19;17;11;
82886;PMS5003;72660;51.258;-2.200;2024-02-28T02:22:44;18;16;
82886;PMS5003;72660;51.258;-2.200;2024-02-28T02:25:10;20;17;
82886;PMS5003;72660;51.258;-2.200;2024-02-28T02:27:35;20;14;
82886;PMS5003;72660;51.258;-2.200;2024-02-28T02:30:01;17;14;
82886;PMS5003;72660;51.258;-2.200;2024-02-28T02:32:26;18;16;
82886;PMS5003;72660;51.258;-2.200;2024-02-28T02:34:52;15;13;
82886;PMS5003;72660;51.258;-2.200;2024-02-28T02:37:17;15;13;
82886;PMS5003;72660;51.258;-2.200;2024-02-28T02:39:43;17;17;
82886;PMS5003;72660;51.258;-2.200;2024-02-28T02:42:08;18;16;
82886;PMS5003;72660;51.258;-2.200;2024-02-28T02:44:33;18;14;
82886;PMS5003;72660;51.258;-2.200;2024-02-28T02:46:59;22;19;
82886;PMS5003;72660;51.258;-2.200;2024-02-28T02:49:24;17;15;
82886;PMS5003;72660;51.258;-2.200;2024-02-28T02:51:49;17;13;
82886;PMS5003;72660;51.258;-2.200;2024-02-28T02:54:15;18;15;
82886;PMS5003;72660;51.258;-2.200;2024-02-28T02:56:41;16;13;
82886;PMS5003;72660;51.258;-2.200;2024-02-28T02:59:05;20;18;
82886;PMS5003;72660;51.258;-2.200;2024-02-28T03:01:31;20;16;
82886;PMS5003;72660;51.258;-2.200;2024-02-28T03:03:56;11;11;
82886;PMS5003;72660;51.258;-2.200;2024-02-28T03:06:22;22;15;
82886;PMS5003;72660;51.258;-2.200;2024-02-28T03:08:47;17;15;
82886;PMS5003;72660;51.258;-2.200;2024-02-28T03:11:12;20;15;
82886;PMS5003;72660;51.258;-2.200;2024-02-28T03:13:38;17;14;
82886;PMS5003;72660;51.258;-2.200;2024-02-28T03:16:04;20;17;
82886;PMS5003;72660;51.258;-2.200;2024-02-28T03:18:29;19;17;
82886;PMS5003;72660;51.258;-2.200;2024-02-28T03:20:55;24;16;
82886;PMS5003;72660;51.258;-2.200;2024-02-28T03:23:20;21;17;
82886;PMS5003;72660;51.258;-2.200;2024-02-28T03:25:45;18;16;
82886;PMS5003;72660;51.258;-2.200;2024-02-28T03:28:10;19;18;
82886;PMS5003;72660;51.258;-2.200;2024-02-28T03:30:36;17;16;
82886;PMS5003;72660;51.258;-2.200;2024-02-28T03:33:01;17;16;
82886;PMS5003;72660;51.258;-2.200;2024-02-28T03:35:26;16;16;
82886;PMS5003;72660;51.258;-2.200;2024-02-28T03:37:52;19;18;
82886;PMS5003;72660;51.258;-2.200;2024-02-28T03:40:18;16;14;
82886;PMS5003;72660;51.258;-2.200;2024-02-28T03:42:43;20;19;
82886;PMS5003;72660;51.258;-2.200;2024-02-28T03:45:08;17;14;
82886;PMS5003;72660;51.258;-2.200;2024-02-28T03:47:33;20;20;
82886;PMS5003;72660;51.258;-2.200;2024-02-28T03:49:59;19;16;
82886;PMS5003;72660;51.258;-2.200;2024-02-28T03:52:24;17;14;
82886;PMS5003;72660;51.258;-2.200;2024-02-28T03:54:49;21;16;
82886;PMS5003;72660;51.258;-2.200;2024-02-28T03:57:15;19;16;
82886;PMS5003;72660;51.258;-2.200;2024-02-28T03:59:40;16;13;
82886;PMS5003;72660;51.258;-2.200;2024-02-28T04:02:05;14;14;
82886;PMS5003;72660;51.258;-2.200;2024-02-28T04:04:30;15;14;
82886;PMS5003;72660;51.258;-2.200;2024-02-28T04:06:56;12;12;
82886;PMS5003;72660;51.258;-2.200;2024-02-28T04:09:21;13;12;
82886;PMS5003;72660;51.258;-2.200;2024-02-28T04:11:46;11;11;
82886;PMS5003;72660;51.258;-2.200;2024-02-28T04:14:12;14;12;
82886;PMS5003;72660;51.258;-2.200;2024-02-28T04:16:40;12;11;
82886;PMS5003;72660;51.258;-2.200;2024-02-28T04:19:03;9;9;
82886;PMS5003;72660;51.258;-2.200;2024-02-28T04:21:28;14;14;
82886;PMS5003;72660;51.258;-2.200;2024-02-28T04:23:53;14;14;
82886;PMS5003;72660;51.258;-2.200;2024-02-28T04:26:19;13;13;
82886;PMS5003;72660;51.258;-2.200;2024-02-28T04:28:44;12;10;
82886;PMS5003;72660;51.258;-2.200;2024-02-28T04:31:09;16;13;
82886;PMS5003;72660;51.258;-2.200;2024-02-28T04:33:35;10;10;
82886;PMS5003;72660;51.258;-2.200;2024-02-28T04:35:59;15;11;
82886;PMS5003;72660;51.258;-2.200;2024-02-28T04:38:24;10;9;
82886;PMS5003;72660;51.258;-2.200;2024-02-28T04:40:49;13;13;
82886;PMS5003;72660;51.258;-2.200;2024-02-28T04:43:15;12;11;
82886;PMS5003;72660;51.258;-2.200;2024-02-28T04:45:40;12;11;
82886;PMS5003;72660;51.258;-2.200;2024-02-28T04:48:06;12;11;
82886;PMS5003;72660;51.258;-2.200;2024-02-28T04:50:31;19;15;
82886;PMS5003;72660;51.258;-2.200;2024-02-28T04:52:56;12;9;
82886;PMS5003;72660;51.258;-2.200;2024-02-28T04:55:21;12;11;
82886;PMS5003;72660;51.258;-2.200;2024-02-28T04:57:46;13;13;
82886;PMS5003;72660;51.258;-2.200;2024-02-28T05:00:12;18;13;
82886;PMS5003;72660;51.258;-2.200;2024-02-28T05:02:37;12;12;
82886;PMS5003;72660;51.258;-2.200;2024-02-28T05:05:02;11;10;
82886;PMS5003;72660;51.258;-2.200;2024-02-28T05:07:27;13;10;
82886;PMS5003;72660;51.258;-2.200;2024-02-28T05:09:52;17;13;
82886;PMS5003;72660;51.258;-2.200;2024-02-28T05:12:17;17;14;
82886;PMS5003;72660;51.258;-2.200;2024-02-28T05:14:42;15;15;
82886;PMS5003;72660;51.258;-2.200;2024-02-28T05:17:08;13;13;
82886;PMS5003;72660;51.258;-2.200;2024-02-28T05:19:33;11;10;
82886;PMS5003;72660;51.258;-2.200;2024-02-28T05:21:59;15;13;
82886;PMS5003;72660;51.258;-2.200;2024-02-28T05:24:24;18;12;
82886;PMS5003;72660;51.258;-2.200;2024-02-28T05:26:49;10;10;
82886;PMS5003;72660;51.258;-2.200;2024-02-28T05:29:14;13;12;
82886;PMS5003;72660;51.258;-2.200;2024-02-28T05:31:39;16;16;
82886;PMS5003;72660;51.258;-2.200;2024-02-28T05:34:04;18;14;
82886;PMS5003;72660;51.258;-2.200;2024-02-28T05:36:30;18;16;
82886;PMS5003;72660;51.258;-2.200;2024-02-28T05:38:55;8;8;
82886;PMS5003;72660;51.258;-2.200;2024-02-28T05:41:20;12;12;
82886;PMS5003;72660;51.258;-2.200;2024-02-28T05:43:45;15;13;
82886;PMS5003;72660;51.258;-2.200;2024-02-28T05:46:10;9;9;
82886;PMS5003;72660;51.258;-2.200;2024-02-28T05:48:36;10;8;
82886;PMS5003;72660;51.258;-2.200;2024-02-28T05:51:01;10;10;
82886;PMS5003;72660;51.258;-2.200;2024-02-28T05:53:27;15;11;
82886;PMS5003;72660;51.258;-2.200;2024-02-28T05:55:52;10;10;
82886;PMS5003;72660;51.258;-2.200;2024-02-28T05:58:17;15;13;
82886;PMS5003;72660;51.258;-2.200;2024-02-28T06:00:43;11;9;
82886;PMS5003;72660;51.258;-2.200;2024-02-28T06:03:08;7;7;
82886;PMS5003;72660;51.258;-2.200;2024-02-28T06:05:33;9;9;
82886;PMS5003;72660;51.258;-2.200;2024-02-28T06:07:59;14;13;
82886;PMS5003;72660;51.258;-2.200;2024-02-28T06:10:24;7;7;
82886;PMS5003;72660;51.258;-2.200;2024-02-28T06:12:49;13;8;
82886;PMS5003;72660;51.258;-2.200;2024-02-28T06:15:15;10;9;
82886;PMS5003;72660;51.258;-2.200;2024-02-28T06:17:39;9;9;
82886;PMS5003;72660;51.258;-2.200;2024-02-28T06:20:05;14;12;
82886;PMS5003;72660;51.258;-2.200;2024-02-28T06:22:30;10;8;
82886;PMS5003;72660;51.258;-2.200;2024-02-28T06:24:55;14;11;
82886;PMS5003;72660;51.258;-2.200;2024-02-28T06:27:21;15;11;
82886;PMS5003;72660;51.258;-2.200;2024-02-28T06:29:46;11;10;
82886;PMS5003;72660;51.258;-2.200;2024-02-28T06:32:12;10;8;
82886;PMS5003;72660;51.258;-2.200;2024-02-28T06:34:37;10;8;
82886;PMS5003;72660;51.258;-2.200;2024-02-28T06:37:02;12;12;
82886;PMS5003;72660;51.258;-2.200;2024-02-28T06:39:27;8;8;
82886;PMS5003;72660;51.258;-2.200;2024-02-28T06:41:52;11;11;
82886;PMS5003;72660;51.258;-2.200;2024-02-28T06:44:18;13;13;
82886;PMS5003;72660;51.258;-2.200;2024-02-28T06:46:43;14;9;
82886;PMS5003;72660;51.258;-2.200;2024-02-28T06:49:08;12;10;
82886;PMS5003;72660;51.258;-2.200;2024-02-28T06:51:33;12;10;
82886;PMS5003;72660;51.258;-2.200;2024-02-28T06:53:59;12;11;
82886;PMS5003;72660;51.258;-2.200;2024-02-28T06:56:24;14;10;
82886;PMS5003;72660;51.258;-2.200;2024-02-28T06:58:49;10;9;
82886;PMS5003;72660;51.258;-2.200;2024-02-28T07:01:15;7;7;
82886;PMS5003;72660;51.258;-2.200;2024-02-28T07:03:40;9;9;
82886;PMS5003;72660;51.258;-2.200;2024-02-28T07:06:05;13;10;
82886;PMS5003;72660;51.258;-2.200;2024-02-28T07:08:31;13;10;
82886;PMS5003;72660;51.258;-2.200;2024-02-28T07:10:56;13;10;
82886;PMS5003;72660;51.258;-2.200;2024-02-28T07:13:21;12;11;
82886;PMS5003;72660;51.258;-2.200;2024-02-28T07:15:46;11;8;
82886;PMS5003;72660;51.258;-2.200;2024-02-28T07:18:12;10;10;
82886;PMS5003;72660;51.258;-2.200;2024-02-28T07:20:37;14;12;
82886;PMS5003;72660;51.258;-2.200;2024-02-28T07:23:03;10;9;
82886;PMS5003;72660;51.258;-2.200;2024-02-28T07:25:28;11;9;
82886;PMS5003;72660;51.258;-2.200;2024-02-28T07:27:53;11;10;
82886;PMS5003;72660;51.258;-2.200;2024-02-28T07:30:18;9;8;
82886;PMS5003;72660;51.258;-2.200;2024-02-28T07:32:43;9;6;
82886;PMS5003;72660;51.258;-2.200;2024-02-28T07:35:09;8;7;
82886;PMS5003;72660;51.258;-2.200;2024-02-28T07:37:34;8;7;
82886;PMS5003;72660;51.258;-2.200;2024-02-28T07:39:59;11;8;
82886;PMS5003;72660;51.258;-2.200;2024-02-28T07:42:25;8;8;
82886;PMS5003;72660;51.258;-2.200;2024-02-28T07:44:51;10;9;
82886;PMS5003;72660;51.258;-2.200;2024-02-28T07:47:16;7;7;
82886;PMS5003;72660;51.258;-2.200;2024-02-28T07:49:41;9;7;
82886;PMS5003;72660;51.258;-2.200;2024-02-28T07:52:07;9;9;
82886;PMS5003;72660;51.258;-2.200;2024-02-28T07:54:32;8;8;
82886;PMS5003;72660;51.258;-2.200;2024-02-28T07:56:57;8;7;
82886;PMS5003;72660;51.258;-2.200;2024-02-28T07:59:22;4;4;
82886;PMS5003;72660;51.258;-2.200;2024-02-28T08:01:48;14;11;
82886;PMS5003;72660;51.258;-2.200;2024-02-28T08:04:13;8;6;
82886;PMS5003;72660;51.258;-2.200;2024-02-28T08:06:39;11;8;
82886;PMS5003;72660;51.258;-2.200;2024-02-28T08:09:03;7;7;
82886;PMS5003;72660;51.258;-2.200;2024-02-28T08:11:28;8;8;
82886;PMS5003;72660;51.258;-2.200;2024-02-28T08:13:54;8;8;
82886;PMS5003;72660;51.258;-2.200;2024-02-28T08:16:19;13;8;
82886;PMS5003;72660;51.258;-2.200;2024-02-28T08:18:44;9;8;
82886;PMS5003;72660;51.258;-2.200;2024-02-28T08:21:10;6;5;
82886;PMS5003;72660;51.258;-2.200;2024-02-28T08:23:35;7;7;
82886;PMS5003;72660;51.258;-2.200;2024-02-28T08:26:01;6;6;
82886;PMS5003;72660;51.258;-2.200;2024-02-28T08:28:25;11;7;
82886;PMS5003;72660;51.258;-2.200;2024-02-28T08:30:50;7;7;
82886;PMS5003;72660;51.258;-2.200;2024-02-28T08:33:15;10;7;
82886;PMS5003;72660;51.258;-2.200;2024-02-28T08:35:40;10;7;
82886;PMS5003;72660;51.258;-2.200;2024-02-28T08:38:06;8;8;
82886;PMS5003;72660;51.258;-2.200;2024-02-28T08:40:31;8;8;
82886;PMS5003;72660;51.258;-2.200;2024-02-28T08:42:56;8;7;
82886;PMS5003;72660;51.258;-2.200;2024-02-28T08:45:22;9;7;
82886;PMS5003;72660;51.258;-2.200;2024-02-28T08:47:46;5;5;
82886;PMS5003;72660;51.258;-2.200;2024-02-28T08:50:12;5;5;
82886;PMS5003;72660;51.258;-2.200;2024-02-28T08:52:37;8;6;
82886;PMS5003;72660;51.258;-2.200;2024-02-28T08:55:02;5;5;
82886;PMS5003;72660;51.258;-2.200;2024-02-28T08:57:28;7;6;
82886;PMS5003;72660;51.258;-2.200;2024-02-28T08:59:53;9;7;
82886;PMS5003;72660;51.258;-2.200;2024-02-28T09:02:18;6;6;
82886;PMS5003;72660;51.258;-2.200;2024-02-28T09:04:43;7;5;
82886;PMS5003;72660;51.258;-2.200;2024-02-28T09:07:09;9;9;
82886;PMS5003;72660;51.258;-2.200;2024-02-28T09:09:34;7;5;
82886;PMS5003;72660;51.258;-2.200;2024-02-28T09:12:00;9;5;
82886;PMS5003;72660;51.258;-2.200;2024-02-28T09:14:25;6;6;
82886;PMS5003;72660;51.258;-2.200;2024-02-28T09:16:50;7;6;
82886;PMS5003;72660;51.258;-2.200;2024-02-28T09:19:16;4;3;
82886;PMS5003;72660;51.258;-2.200;2024-02-28T09:21:41;6;5;
82886;PMS5003;72660;51.258;-2.200;2024-02-28T09:24:06;5;5;
82886;PMS5003;72660;51.258;-2.200;2024-02-28T09:26:31;10;8;
82886;PMS5003;72660;51.258;-2.200;2024-02-28T09:28:57;6;4;
82886;PMS5003;72660;51.258;-2.200;2024-02-28T09:31:22;11;10;
82886;PMS5003;72660;51.258;-2.200;2024-02-28T09:33:47;6;6;
82886;PMS5003;72660;51.258;-2.200;2024-02-28T09:36:13;5;5;
82886;PMS5003;72660;51.258;-2.200;2024-02-28T09:38:38;9;7;
82886;PMS5003;72660;51.258;-2.200;2024-02-28T09:41:04;8;7;
82886;PMS5003;72660;51.258;-2.200;2024-02-28T09:43:30;9;7;
82886;PMS5003;72660;51.258;-2.200;2024-02-28T09:45:54;6;6;
82886;PMS5003;72660;51.258;-2.200;2024-02-28T09:48:20;8;6;
82886;PMS5003;72660;51.258;-2.200;2024-02-28T09:50:45;8;8;
82886;PMS5003;72660;51.258;-2.200;2024-02-28T09:53:10;6;6;
82886;PMS5003;72660;51.258;-2.200;2024-02-28T09:55:35;6;4;
82886;PMS5003;72660;51.258;-2.200;2024-02-28T09:58:01;11;6;
82886;PMS5003;72660;51.258;-2.200;2024-02-28T10:00:27;6;6;
82886;PMS5003;72660;51.258;-2.200;2024-02-28T10:02:52;7;6;
82886;PMS5003;72660;51.258;-2.200;2024-02-28T10:05:18;9;6;
82886;PMS5003;72660;51.258;-2.200;2024-02-28T10:07:44;5;5;
82886;PMS5003;72660;51.258;-2.200;2024-02-28T10:10:09;5;5;
82886;PMS5003;72660;51.258;-2.200;2024-02-28T10:12:36;3;3;
82886;PMS5003;72660;51.258;-2.200;2024-02-28T10:15:01;3;3;
82886;PMS5003;72660;51.258;-2.200;2024-02-28T10:17:26;3;3;
82886;PMS5003;72660;51.258;-2.200;2024-02-28T10:19:51;3;3;
82886;PMS5003;72660;51.258;-2.200;2024-02-28T10:22:16;6;3;
82886;PMS5003;72660;51.258;-2.200;2024-02-28T10:24:42;0;0;
82886;PMS5003;72660;51.258;-2.200;2024-02-28T10:27:07;2;2;
82886;PMS5003;72660;51.258;-2.200;2024-02-28T10:29:32;3;1;
82886;PMS5003;72660;51.258;-2.200;2024-02-28T10:31:58;4;3;
82886;PMS5003;72660;51.258;-2.200;2024-02-28T10:34:23;3;3;
82886;PMS5003;72660;51.258;-2.200;2024-02-28T10:36:48;4;2;
82886;PMS5003;72660;51.258;-2.200;2024-02-28T10:39:14;3;2;
82886;PMS5003;72660;51.258;-2.200;2024-02-28T10:41:39;6;4;
82886;PMS5003;72660;51.258;-2.200;2024-02-28T10:44:04;4;4;
82886;PMS5003;72660;51.258;-2.200;2024-02-28T10:46:30;3;3;
82886;PMS5003;72660;51.258;-2.200;2024-02-28T10:48:55;4;3;
82886;PMS5003;72660;51.258;-2.200;2024-02-28T10:51:22;2;2;
82886;PMS5003;72660;51.258;-2.200;2024-02-28T10:53:45;3;2;
82886;PMS5003;72660;51.258;-2.200;2024-02-28T10:56:11;4;4;
82886;PMS5003;72660;51.258;-2.200;2024-02-28T10:58:36;1;1;
82886;PMS5003;72660;51.258;-2.200;2024-02-28T11:01:01;2;2;
82886;PMS5003;72660;51.258;-2.200;2024-02-28T11:03:26;2;1;
82886;PMS5003;72660;51.258;-2.200;2024-02-28T11:05:51;3;3;
82886;PMS5003;72660;51.258;-2.200;2024-02-28T11:08:21;0;0;
82886;PMS5003;72660;51.258;-2.200;2024-02-28T11:10:43;3;3;
82886;PMS5003;72660;51.258;-2.200;2024-02-28T11:13:08;3;3;
82886;PMS5003;72660;51.258;-2.200;2024-02-28T11:15:33;4;3;
82886;PMS5003;72660;51.258;-2.200;2024-02-28T11:25:15;1;1;
82886;PMS5003;72660;51.258;-2.200;2024-02-28T11:27:46;1;1;
82886;PMS5003;72660;51.258;-2.200;2024-02-28T11:30:06;1;1;
82886;PMS5003;72660;51.258;-2.200;2024-02-28T11:32:31;3;2;
82886;PMS5003;72660;51.258;-2.200;2024-02-28T11:34:57;3;3;
82886;PMS5003;72660;51.258;-2.200;2024-02-28T11:37:23;3;3;
82886;PMS5003;72660;51.258;-2.200;2024-02-28T11:39:48;5;3;
82886;PMS5003;72660;51.258;-2.200;2024-02-28T11:42:14;4;4;
82886;PMS5003;72660;51.258;-2.200;2024-02-28T11:44:39;2;2;
82886;PMS5003;72660;51.258;-2.200;2024-02-28T11:47:04;3;3;
82886;PMS5003;72660;51.258;-2.200;2024-02-28T11:49:32;4;3;
82886;PMS5003;72660;51.258;-2.200;2024-02-28T11:51:55;3;1;
82886;PMS5003;72660;51.258;-2.200;2024-02-28T11:54:20;2;2;
82886;PMS5003;72660;51.258;-2.200;2024-02-28T11:56:46;4;4;
82886;PMS5003;72660;51.258;-2.200;2024-02-28T11:59:11;5;3;
82886;PMS5003;72660;51.258;-2.200;2024-02-28T12:01:37;4;3;
82886;PMS5003;72660;51.258;-2.200;2024-02-28T12:04:02;8;3;
82886;PMS5003;72660;51.258;-2.200;2024-02-28T12:06:27;3;3;
82886;PMS5003;72660;51.258;-2.200;2024-02-28T12:08:52;3;2;
82886;PMS5003;72660;51.258;-2.200;2024-02-28T12:11:18;5;4;
82886;PMS5003;72660;51.258;-2.200;2024-02-28T12:13:43;6;3;
82886;PMS5003;72660;51.258;-2.200;2024-02-28T12:16:08;2;2;
82886;PMS5003;72660;51.258;-2.200;2024-02-28T12:18:34;3;3;
82886;PMS5003;72660;51.258;-2.200;2024-02-28T12:20:59;5;4;
82886;PMS5003;72660;51.258;-2.200;2024-02-28T12:23:24;2;2;
82886;PMS5003;72660;51.258;-2.200;2024-02-28T12:25:50;4;3;
82886;PMS5003;72660;51.258;-2.200;2024-02-28T12:28:15;3;3;
82886;PMS5003;72660;51.258;-2.200;2024-02-28T12:30:41;3;1;
82886;PMS5003;72660;51.258;-2.200;2024-02-28T12:33:05;2;2;
82886;PMS5003;72660;51.258;-2.200;2024-02-28T12:35:31;4;1;
82886;PMS5003;72660;51.258;-2.200;2024-02-28T12:37:56;0;0;
82886;PMS5003;72660;51.258;-2.200;2024-02-28T12:40:22;3;2;
82886;PMS5003;72660;51.258;-2.200;2024-02-28T12:42:47;2;2;
82886;PMS5003;72660;51.258;-2.200;2024-02-28T12:45:12;6;4;
82886;PMS5003;72660;51.258;-2.200;2024-02-28T12:47:38;1;1;
82886;PMS5003;72660;51.258;-2.200;2024-02-28T12:50:05;2;2;
82886;PMS5003;72660;51.258;-2.200;2024-02-28T12:52:28;1;1;
82886;PMS5003;72660;51.258;-2.200;2024-02-28T12:54:53;3;1;
82886;PMS5003;72660;51.258;-2.200;2024-02-28T12:57:19;3;3;
82886;PMS5003;72660;51.258;-2.200;2024-02-28T12:59:52;2;2;
82886;PMS5003;72660;51.258;-2.200;2024-02-28T13:02:15;1;1;
82886;PMS5003;72660;51.258;-2.200;2024-02-28T13:04:36;0;0;
82886;PMS5003;72660;51.258;-2.200;2024-02-28T13:09:26;1;0;
82886;PMS5003;72660;51.258;-2.200;2024-02-28T13:11:51;2;2;
82886;PMS5003;72660;51.258;-2.200;2024-02-28T13:14:17;3;1;
82886;PMS5003;72660;51.258;-2.200;2024-02-28T13:16:42;5;4;
82886;PMS5003;72660;51.258;-2.200;2024-02-28T13:19:07;2;2;
82886;PMS5003;72660;51.258;-2.200;2024-02-28T13:21:33;2;2;
82886;PMS5003;72660;51.258;-2.200;2024-02-28T13:23:58;3;2;
82886;PMS5003;72660;51.258;-2.200;2024-02-28T13:26:24;3;3;
82886;PMS5003;72660;51.258;-2.200;2024-02-28T13:28:49;2;0;
82886;PMS5003;72660;51.258;-2.200;2024-02-28T13:31:14;1;1;
82886;PMS5003;72660;51.258;-2.200;2024-02-28T13:33:40;1;1;
82886;PMS5003;72660;51.258;-2.200;2024-02-28T13:36:06;1;1;
82886;PMS5003;72660;51.258;-2.200;2024-02-28T13:38:30;5;2;
82886;PMS5003;72660;51.258;-2.200;2024-02-28T13:40:56;4;3;
82886;PMS5003;72660;51.258;-2.200;2024-02-28T13:43:21;1;1;
82886;PMS5003;72660;51.258;-2.200;2024-02-28T13:45:47;1;1;
82886;PMS5003;72660;51.258;-2.200;2024-02-28T13:48:15;3;1;
82886;PMS5003;72660;51.258;-2.200;2024-02-28T13:50:37;1;1;
82886;PMS5003;72660;51.258;-2.200;2024-02-28T13:53:03;3;3;
82886;PMS5003;72660;51.258;-2.200;2024-02-28T13:55:28;2;2;
82886;PMS5003;72660;51.258;-2.200;2024-02-28T13:57:53;2;2;
82886;PMS5003;72660;51.258;-2.200;2024-02-28T14:00:18;2;2;
82886;PMS5003;72660;51.258;-2.200;2024-02-28T14:02:44;2;2;
82886;PMS5003;72660;51.258;-2.200;2024-02-28T14:05:12;3;3;
82886;PMS5003;72660;51.258;-2.200;2024-02-28T14:07:34;6;6;
82886;PMS5003;72660;51.258;-2.200;2024-02-28T14:10:00;6;6;
82886;PMS5003;72660;51.258;-2.200;2024-02-28T14:12:25;7;6;
82886;PMS5003;72660;51.258;-2.200;2024-02-28T14:14:50;4;3;
82886;PMS5003;72660;51.258;-2.200;2024-02-28T14:17:16;6;6;
82886;PMS5003;72660;51.258;-2.200;2024-02-28T14:19:41;6;6;
82886;PMS5003;72660;51.258;-2.200;2024-02-28T14:22:07;8;8;
82886;PMS5003;72660;51.258;-2.200;2024-02-28T14:24:32;4;3;
82886;PMS5003;72660;51.258;-2.200;2024-02-28T14:26:58;2;2;
82886;PMS5003;72660;51.258;-2.200;2024-02-28T14:29:24;1;1;
82886;PMS5003;72660;51.258;-2.200;2024-02-28T14:31:48;1;1;
82886;PMS5003;72660;51.258;-2.200;2024-02-28T14:34:13;1;1;
82886;PMS5003;72660;51.258;-2.200;2024-02-28T14:36:44;1;0;
82886;PMS5003;72660;51.258;-2.200;2024-02-28T14:39:04;0;0;
82886;PMS5003;72660;51.258;-2.200;2024-02-28T14:41:29;1;1;
82886;PMS5003;72660;51.258;-2.200;2024-02-28T14:43:54;0;0;
82886;PMS5003;72660;51.258;-2.200;2024-02-28T14:46:20;1;1;
82886;PMS5003;72660;51.258;-2.200;2024-02-28T14:48:45;0;0;
82886;PMS5003;72660;51.258;-2.200;2024-02-28T14:51:10;1;1;
82886;PMS5003;72660;51.258;-2.200;2024-02-28T14:53:36;0;0;
82886;PMS5003;72660;51.258;-2.200;2024-02-28T14:56:01;1;1;
82886;PMS5003;72660;51.258;-2.200;2024-02-28T14:58:26;0;0;
82886;PMS5003;72660;51.258;-2.200;2024-02-28T15:00:52;0;0;
82886;PMS5003;72660;51.258;-2.200;2024-02-28T15:03:17;1;1;
82886;PMS5003;72660;51.258;-2.200;2024-02-28T15:05:42;1;1;
82886;PMS5003;72660;51.258;-2.200;2024-02-28T15:08:08;2;1;
82886;PMS5003;72660;51.258;-2.200;2024-02-28T15:10:33;0;0;
82886;PMS5003;72660;51.258;-2.200;2024-02-28T15:12:58;0;0;
82886;PMS5003;72660;51.258;-2.200;2024-02-28T15:15:23;1;1;
82886;PMS5003;72660;51.258;-2.200;2024-02-28T15:17:49;3;3;
82886;PMS5003;72660;51.258;-2.200;2024-02-28T15:20:14;2;2;
82886;PMS5003;72660;51.258;-2.200;2024-02-28T15:22:39;2;2;
82886;PMS5003;72660;51.258;-2.200;2024-02-28T15:25:05;1;1;
82886;PMS5003;72660;51.258;-2.200;2024-02-28T15:27:30;2;1;
82886;PMS5003;72660;51.258;-2.200;2024-02-28T15:29:55;2;2;
82886;PMS5003;72660;51.258;-2.200;2024-02-28T15:32:20;2;2;
82886;PMS5003;72660;51.258;-2.200;2024-02-28T15:34:46;1;1;
82886;PMS5003;72660;51.258;-2.200;2024-02-28T15:37:11;2;2;
82886;PMS5003;72660;51.258;-2.200;2024-02-28T15:39:36;2;2;
82886;PMS5003;72660;51.258;-2.200;2024-02-28T15:42:02;3;3;
82886;PMS5003;72660;51.258;-2.200;2024-02-28T15:44:27;5;2;
82886;PMS5003;72660;51.258;-2.200;2024-02-28T15:46:52;1;1;
82886;PMS5003;72660;51.258;-2.200;2024-02-28T15:49:18;3;3;
82886;PMS5003;72660;51.258;-2.200;2024-02-28T15:51:43;4;4;
82886;PMS5003;72660;51.258;-2.200;2024-02-28T15:54:08;2;2;
82886;PMS5003;72660;51.258;-2.200;2024-02-28T15:56:33;4;3;
82886;PMS5003;72660;51.258;-2.200;2024-02-28T15:58:59;2;2;
82886;PMS5003;72660;51.258;-2.200;2024-02-28T16:01:24;1;1;
82886;PMS5003;72660;51.258;-2.200;2024-02-28T16:03:49;1;1;
82886;PMS5003;72660;51.258;-2.200;2024-02-28T16:06:15;3;1;
82886;PMS5003;72660;51.258;-2.200;2024-02-28T16:08:40;2;2;
82886;PMS5003;72660;51.258;-2.200;2024-02-28T16:11:05;1;1;
82886;PMS5003;72660;51.258;-2.200;2024-02-28T16:13:30;2;2;
82886;PMS5003;72660;51.258;-2.200;2024-02-28T16:15:56;1;1;
82886;PMS5003;72660;51.258;-2.200;2024-02-28T16:18:22;3;2;